Time;durP1;ratioP1;P1;durP2;ratioP2;P2;SDS_P1;SDS_P2;PMS_P1;PMS_P2;Temp;Humidity;BMP_temperature;BMP_pressure;BME280_temperature;BME280_humidity;BME280_pressure;Samples;Min_cycle;Max_cycle;Signal;HPM_P1;HPM_P2
2021/07/23 00:01:24;;;;;;;10.13;7.07;;;14.20;94.80;;;;;;4957333;28;20618;-86
2021/07/23 00:03:50;;;;;;;10.48;7.10;;;14.20;94.80;;;;;;4954608;28;20039;-86
2021/07/23 00:06:16;;;;;;;8.45;7.00;;;14.20;94.80;;;;;;4935899;28;20098;-87
2021/07/23 00:08:41;;;;;;;11.30;7.78;;;14.20;94.80;;;;;;4946636;28;20047;-87
2021/07/23 00:11:07;;;;;;;11.07;7.50;;;14.20;94.90;;;;;;4954391;28;20457;-86
2021/07/23 00:13:33;;;;;;;9.98;7.22;;;14.20;95.10;;;;;;4951427;28;20053;-86
2021/07/23 00:15:59;;;;;;;9.02;7.65;;;14.30;95.10;;;;;;4945225;28;20034;-86
2021/07/23 00:18:25;;;;;;;12.00;7.72;;;14.30;95.20;;;;;;4957296;28;20061;-86
2021/07/23 00:20:51;;;;;;;11.05;7.43;;;14.30;95.30;;;;;;4957737;28;20044;-87
2021/07/23 00:23:16;;;;;;;9.35;7.35;;;14.30;95.30;;;;;;4940533;28;20039;-87
2021/07/23 00:25:42;;;;;;;9.95;7.00;;;14.30;95.30;;;;;;4964671;28;20405;-86
2021/07/23 00:28:08;;;;;;;8.15;7.07;;;14.30;95.20;;;;;;4948315;28;20065;-88
2021/07/23 00:30:34;;;;;;;13.45;6.95;;;14.30;95.20;;;;;;4935707;28;20514;-87
2021/07/23 00:33:01;;;;;;;14.00;7.93;;;14.30;95.30;;;;;;4974303;28;20045;-86
2021/07/23 00:35:28;;;;;;;10.55;7.90;;;14.30;95.40;;;;;;4958700;28;21457;-86
2021/07/23 00:37:56;;;;;;;10.35;7.70;;;14.40;95.50;;;;;;4958115;28;20054;-86
2021/07/23 00:40:23;;;;;;;11.75;8.15;;;14.40;95.60;;;;;;4941790;28;20041;-87
2021/07/23 00:42:49;;;;;;;13.63;7.97;;;14.40;95.70;;;;;;4952683;28;20039;-86
2021/07/23 00:45:14;;;;;;;12.20;7.82;;;14.40;95.60;;;;;;4955287;28;20031;-85
2021/07/23 00:47:45;;;;;;;11.05;7.68;;;14.40;95.60;;;;;;4956891;28;20057;-86
2021/07/23 00:50:12;;;;;;;11.60;7.93;;;14.40;95.60;;;;;;4977754;28;20041;-87
2021/07/23 00:52:38;;;;;;;13.80;8.60;;;14.40;95.50;;;;;;4962411;28;20034;-86
2021/07/23 00:55:05;;;;;;;14.75;8.73;;;14.50;95.60;;;;;;4961978;28;20032;-86
2021/07/23 00:57:32;;;;;;;13.63;8.38;;;14.50;95.80;;;;;;4986324;28;20049;-86
2021/07/23 00:59:59;;;;;;;12.95;8.80;;;14.50;95.90;;;;;;4967961;28;20171;-86
2021/07/23 01:02:25;;;;;;;9.50;7.80;;;14.50;96.00;;;;;;4957630;28;20050;-86
2021/07/23 01:04:52;;;;;;;11.30;8.00;;;14.50;96.00;;;;;;4946492;28;20038;-86
2021/07/23 01:07:19;;;;;;;12.00;8.07;;;14.60;96.00;;;;;;4958227;28;20493;-87
2021/07/23 01:09:45;;;;;;;10.65;8.27;;;14.60;96.10;;;;;;4962499;28;20054;-87
2021/07/23 01:12:12;;;;;;;9.85;7.65;;;14.60;96.20;;;;;;4942547;28;20023;-86
2021/07/23 01:14:39;;;;;;;12.23;7.88;;;14.60;96.20;;;;;;4956155;28;20042;-86
2021/07/23 01:17:05;;;;;;;13.68;8.70;;;14.70;96.00;;;;;;4966292;28;20510;-86
2021/07/23 01:19:40;;;;;;;13.75;8.70;;;14.70;96.10;;;;;;4948766;28;21831;-87
2021/07/23 01:22:08;;;;;;;10.50;8.35;;;14.70;96.20;;;;;;4973554;28;21232;-87
2021/07/23 01:24:36;;;;;;;13.07;8.63;;;14.70;96.20;;;;;;4962047;28;20038;-87
2021/07/23 01:27:02;;;;;;;10.00;7.82;;;14.80;96.30;;;;;;4972323;28;20092;-87
2021/07/23 01:29:28;;;;;;;13.10;8.63;;;14.80;96.50;;;;;;4944531;28;20497;-87
2021/07/23 01:31:54;;;;;;;12.85;8.55;;;14.80;96.50;;;;;;4947945;28;20027;-86
2021/07/23 01:34:20;;;;;;;13.07;9.10;;;14.90;96.60;;;;;;4957284;28;20035;-86
2021/07/23 01:36:46;;;;;;;12.80;9.02;;;14.90;96.60;;;;;;4956477;28;20257;-86
2021/07/23 01:39:14;;;;;;;14.45;9.45;;;14.90;96.60;;;;;;4925484;28;20045;-86
2021/07/23 01:41:40;;;;;;;11.10;8.73;;;14.90;96.60;;;;;;4964386;28;20068;-87
2021/07/23 01:44:06;;;;;;;10.40;8.70;;;14.90;96.60;;;;;;4947722;28;20046;-87
2021/07/23 01:46:32;;;;;;;11.98;8.60;;;14.90;96.50;;;;;;4935133;28;20043;-86
2021/07/23 01:48:58;;;;;;;10.90;8.85;;;15.00;96.50;;;;;;4955345;28;20043;-87
2021/07/23 01:51:24;;;;;;;10.65;8.80;;;15.00;96.60;;;;;;4958731;28;20046;-86
2021/07/23 01:53:50;;;;;;;14.18;9.63;;;15.00;96.60;;;;;;4949618;28;20039;-85
2021/07/23 01:56:16;;;;;;;12.77;9.15;;;15.00;96.60;;;;;;4949732;28;20031;-84
2021/07/23 01:58:42;;;;;;;14.05;9.82;;;15.00;96.50;;;;;;4969030;28;20039;-85
2021/07/23 02:01:08;;;;;;;14.93;9.35;;;15.00;96.60;;;;;;4975941;28;20041;-85
2021/07/23 02:03:34;;;;;;;12.30;9.93;;;15.00;96.60;;;;;;4960250;28;20167;-85
2021/07/23 02:06:00;;;;;;;11.25;8.85;;;15.10;96.70;;;;;;4939855;28;20173;-85
2021/07/23 02:08:26;;;;;;;14.90;10.10;;;15.10;96.70;;;;;;4965633;28;20129;-85
2021/07/23 02:10:52;;;;;;;15.00;9.60;;;15.10;96.70;;;;;;4964285;28;20026;-85
2021/07/23 02:13:18;;;;;;;17.55;10.18;;;15.20;96.80;;;;;;4947830;28;20046;-85
2021/07/23 02:15:44;;;;;;;14.55;8.88;;;15.20;96.80;;;;;;4927440;28;20634;-84
2021/07/23 02:18:10;;;;;;;14.80;9.93;;;15.20;96.70;;;;;;4954684;28;20836;-85
2021/07/23 02:20:37;;;;;;;14.15;9.45;;;15.20;96.60;;;;;;4958225;28;20118;-85
2021/07/23 02:23:04;;;;;;;12.77;10.50;;;15.20;96.70;;;;;;4943786;28;20559;-85
2021/07/23 02:25:32;;;;;;;14.65;9.52;;;15.20;96.80;;;;;;4966613;28;20031;-84
2021/07/23 02:27:57;;;;;;;13.38;9.85;;;15.20;96.70;;;;;;4964584;28;20054;-85
2021/07/23 02:30:23;;;;;;;14.38;10.18;;;15.20;96.60;;;;;;4956064;28;20043;-84
2021/07/23 02:32:49;;;;;;;13.57;9.10;;;15.30;96.70;;;;;;4938310;28;20066;-85
2021/07/23 02:35:16;;;;;;;13.60;10.18;;;15.30;96.70;;;;;;4943342;28;20079;-84
2021/07/23 02:37:42;;;;;;;11.45;8.75;;;15.20;96.60;;;;;;4946934;28;20038;-84
2021/07/23 02:40:08;;;;;;;14.43;9.30;;;15.30;96.50;;;;;;4960960;28;20504;-85
2021/07/23 02:42:34;;;;;;;17.48;9.30;;;15.30;96.50;;;;;;4959905;28;20137;-85
2021/07/23 02:45:00;;;;;;;16.75;10.18;;;15.30;96.50;;;;;;4955895;28;20126;-84
2021/07/23 02:47:25;;;;;;;14.52;10.23;;;15.30;96.60;;;;;;4956976;28;20102;-85
2021/07/23 02:49:51;;;;;;;15.50;10.88;;;15.30;96.80;;;;;;4928126;28;21103;-85
2021/07/23 02:52:17;;;;;;;14.13;9.68;;;15.40;96.90;;;;;;4945742;28;20026;-84
2021/07/23 02:54:43;;;;;;;13.90;11.18;;;15.40;97.00;;;;;;4976475;28;20045;-85
2021/07/23 02:57:09;;;;;;;12.55;9.88;;;15.30;97.10;;;;;;4968870;28;20456;-85
2021/07/23 02:59:34;;;;;;;14.02;9.35;;;15.40;97.20;;;;;;4978429;28;20038;-85
2021/07/23 03:02:00;;;;;;;20.42;10.80;;;15.40;97.10;;;;;;4952650;28;20031;-85
2021/07/23 03:04:26;;;;;;;14.18;9.63;;;15.40;97.30;;;;;;4946875;28;20498;-85
2021/07/23 03:06:54;;;;;;;16.15;10.88;;;15.40;97.20;;;;;;4927592;28;20079;-85
2021/07/23 03:09:20;;;;;;;14.52;10.38;;;15.50;97.00;;;;;;4961036;28;20070;-85
2021/07/23 03:11:46;;;;;;;16.45;11.82;;;15.50;97.10;;;;;;4963658;28;20058;-85
2021/07/23 03:14:12;;;;;;;17.98;11.52;;;15.50;97.20;;;;;;4956387;28;20039;-85
2021/07/23 03:16:38;;;;;;;14.15;10.55;;;15.50;97.30;;;;;;4945384;28;20041;-85
2021/07/23 03:19:03;;;;;;;18.42;11.77;;;15.50;97.20;;;;;;4949941;28;20131;-85
2021/07/23 03:21:29;;;;;;;18.02;12.35;;;15.50;97.20;;;;;;4934604;28;20108;-85
2021/07/23 03:23:55;;;;;;;13.63;10.63;;;15.50;97.30;;;;;;4934600;28;20379;-85
2021/07/23 03:26:21;;;;;;;13.75;10.15;;;15.50;97.20;;;;;;4957059;28;20046;-85
2021/07/23 03:28:47;;;;;;;16.42;11.50;;;15.50;97.10;;;;;;4957770;28;20296;-85
2021/07/23 03:31:13;;;;;;;13.77;11.27;;;15.50;97.20;;;;;;4945263;28;20533;-85
2021/07/23 03:33:40;;;;;;;14.23;10.80;;;15.50;97.30;;;;;;4946645;28;20105;-85
2021/07/23 03:36:06;;;;;;;15.68;11.32;;;15.50;97.40;;;;;;4937058;28;20090;-85
2021/07/23 03:38:32;;;;;;;12.88;10.52;;;15.60;97.50;;;;;;4959372;28;20031;-85
2021/07/23 03:40:57;;;;;;;16.60;11.80;;;15.50;97.50;;;;;;4946066;28;20126;-84
2021/07/23 03:43:23;;;;;;;16.30;11.55;;;15.50;97.50;;;;;;4944366;28;20039;-85
2021/07/23 03:45:49;;;;;;;17.50;11.52;;;15.50;97.50;;;;;;4953967;28;20129;-84
2021/07/23 03:48:15;;;;;;;14.70;11.45;;;15.60;97.60;;;;;;4939978;28;20483;-83
2021/07/23 03:50:41;;;;;;;16.40;11.90;;;15.60;97.60;;;;;;4931649;28;20041;-84
2021/07/23 03:53:07;;;;;;;17.92;11.10;;;15.60;97.60;;;;;;4946878;28;20043;-85
2021/07/23 03:55:33;;;;;;;12.07;9.80;;;15.60;97.60;;;;;;4957750;28;20119;-85
2021/07/23 03:57:58;;;;;;;15.45;11.30;;;15.60;97.50;;;;;;4956019;28;20042;-85
2021/07/23 04:00:24;;;;;;;16.30;11.73;;;15.60;97.60;;;;;;4964292;28;20133;-83
2021/07/23 04:02:50;;;;;;;21.95;11.75;;;15.60;97.60;;;;;;4976137;28;20043;-85
2021/07/23 04:05:16;;;;;;;13.30;10.75;;;15.60;97.70;;;;;;4961078;28;20109;-84
2021/07/23 04:07:42;;;;;;;19.85;10.73;;;15.60;97.60;;;;;;4941011;28;20057;-84
2021/07/23 04:10:09;;;;;;;14.98;10.45;;;15.60;97.50;;;;;;4943408;28;20035;-85
2021/07/23 04:12:35;;;;;;;12.75;10.13;;;15.60;97.50;;;;;;4957821;28;20061;-85
2021/07/23 04:15:04;;;;;;;15.00;10.10;;;15.60;97.50;;;;;;4967358;28;20035;-84
2021/07/23 04:17:30;;;;;;;14.55;11.00;;;15.60;97.50;;;;;;4945455;28;20059;-84
2021/07/23 04:19:56;;;;;;;14.80;9.93;;;15.70;97.60;;;;;;4956667;28;20062;-85
2021/07/23 04:22:21;;;;;;;15.77;10.38;;;15.70;97.70;;;;;;4957483;28;20517;-85
2021/07/23 04:24:47;;;;;;;13.07;9.52;;;15.60;97.60;;;;;;4943556;28;20129;-85
2021/07/23 04:27:13;;;;;;;18.30;10.10;;;15.70;97.60;;;;;;4963662;28;20035;-84
2021/07/23 04:29:40;;;;;;;18.65;9.98;;;15.70;97.60;;;;;;4943458;28;20264;-85
2021/07/23 04:32:07;;;;;;;15.82;9.85;;;15.70;97.50;;;;;;4934990;28;20035;-84
2021/07/23 04:34:32;;;;;;;14.93;9.60;;;15.70;97.50;;;;;;4952918;28;20122;-85
2021/07/23 04:37:00;;;;;;;14.38;9.85;;;15.80;97.40;;;;;;4964460;28;20038;-85
2021/07/23 04:39:31;;;;;;;12.27;9.50;;;15.80;97.40;;;;;;4944932;28;20042;-85
2021/07/23 04:41:57;;;;;;;15.13;9.23;;;15.80;97.40;;;;;;4964481;28;20035;-89
2021/07/23 04:44:32;;;;;;;14.37;8.97;;;15.80;97.30;;;;;;4963925;28;20039;-88
2021/07/23 04:47:00;;;;;;;12.38;8.95;;;15.80;97.40;;;;;;4973352;28;20161;-89
2021/07/23 04:49:28;;;;;;;13.55;9.52;;;15.90;97.30;;;;;;4984469;28;20469;-87
2021/07/23 04:51:55;;;;;;;10.48;8.50;;;15.90;97.40;;;;;;4950095;28;20047;-88
2021/07/23 04:54:21;;;;;;;10.10;8.43;;;15.90;97.40;;;;;;4989923;28;20038;-87
2021/07/23 04:56:51;;;;;;;12.05;8.98;;;15.90;97.40;;;;;;4964071;28;20053;-87
2021/07/23 04:59:18;;;;;;;12.45;8.77;;;15.90;97.30;;;;;;4918991;28;20045;-87
2021/07/23 05:01:44;;;;;;;12.75;8.45;;;15.90;97.20;;;;;;4967511;28;20045;-87
2021/07/23 05:04:09;;;;;;;11.90;8.95;;;15.90;97.20;;;;;;4950404;28;20042;-89
2021/07/23 05:06:38;;;;;;;11.93;9.02;;;15.90;97.20;;;;;;4960206;28;20551;-87
2021/07/23 05:09:06;;;;;;;13.38;8.50;;;16.00;97.30;;;;;;4948668;28;20054;-87
2021/07/23 05:11:33;;;;;;;17.35;9.13;;;16.00;97.30;;;;;;4986384;28;20070;-87
2021/07/23 05:14:05;;;;;;;11.50;8.48;;;16.00;97.30;;;;;;4981200;28;20129;-87
2021/07/23 05:16:31;;;;;;;10.60;8.77;;;16.00;97.30;;;;;;4938430;28;20047;-87
2021/07/23 05:19:11;;;;;;;15.32;8.18;;;16.00;97.40;;;;;;4961902;28;20042;-87
2021/07/23 05:21:38;;;;;;;12.43;8.52;;;16.00;97.30;;;;;;4978824;28;20035;-86
2021/07/23 05:24:09;;;;;;;12.48;8.57;;;16.00;97.30;;;;;;4952023;28;20051;-87
2021/07/23 05:26:36;;;;;;;12.63;8.45;;;16.00;97.30;;;;;;4960928;28;20104;-87
2021/07/23 05:29:09;;;;;;;16.63;7.85;;;16.00;97.40;;;;;;4980891;28;20449;-86
2021/07/23 05:31:35;;;;;;;13.50;7.82;;;16.00;97.30;;;;;;4948517;28;20095;-87
2021/07/23 05:34:02;;;;;;;11.38;7.47;;;16.00;97.30;;;;;;4961274;28;20090;-86
2021/07/23 05:36:28;;;;;;;15.93;8.63;;;16.10;97.20;;;;;;4966968;28;20047;-87
2021/07/23 05:38:55;;;;;;;11.27;8.10;;;16.10;97.10;;;;;;4987254;28;20035;-88
2021/07/23 05:41:21;;;;;;;14.73;8.45;;;16.10;97.10;;;;;;4971976;28;20031;-87
2021/07/23 05:43:47;;;;;;;14.82;8.85;;;16.10;97.10;;;;;;4968662;28;20141;-88
2021/07/23 05:46:13;;;;;;;11.55;8.57;;;16.20;97.10;;;;;;4972939;28;20059;-90
2021/07/23 05:48:40;;;;;;;13.75;8.40;;;16.20;97.10;;;;;;4992227;28;20387;-89
2021/07/23 05:51:07;;;;;;;14.80;8.63;;;16.20;97.10;;;;;;4985587;28;20031;-90
2021/07/23 05:53:33;;;;;;;14.00;8.32;;;16.20;97.10;;;;;;4990219;28;20045;-87
2021/07/23 05:56:00;;;;;;;17.02;8.65;;;16.20;97.00;;;;;;4960920;28;20516;-88
2021/07/23 05:58:27;;;;;;;12.90;7.97;;;16.20;97.00;;;;;;4941975;28;20035;-87
2021/07/23 06:00:54;;;;;;;14.73;8.30;;;16.20;97.00;;;;;;4951950;28;20062;-88
2021/07/23 06:03:20;;;;;;;13.85;7.85;;;16.20;97.00;;;;;;4947024;28;20282;-87
2021/07/23 06:05:46;;;;;;;13.57;8.25;;;16.30;97.10;;;;;;4980153;28;20143;-88
2021/07/23 06:08:12;;;;;;;17.00;9.60;;;16.30;97.00;;;;;;4964065;28;20091;-89
2021/07/23 06:10:39;;;;;;;12.38;7.75;;;16.30;97.00;;;;;;4968332;28;20057;-89
2021/07/23 06:13:05;;;;;;;11.45;7.97;;;16.30;96.90;;;;;;4970593;28;20043;-88
2021/07/23 06:15:31;;;;;;;11.90;7.93;;;16.40;96.90;;;;;;4953878;28;20046;-87
2021/07/23 06:17:58;;;;;;;12.80;8.65;;;16.40;96.80;;;;;;4947394;28;20037;-87
2021/07/23 06:20:24;;;;;;;12.43;8.52;;;16.40;96.70;;;;;;4966667;28;20050;-87
2021/07/23 06:22:59;;;;;;;12.65;8.52;;;16.40;96.50;;;;;;4968415;28;20389;-86
2021/07/23 06:25:25;;;;;;;13.20;8.88;;;16.40;96.40;;;;;;4971513;28;20053;-87
2021/07/23 06:27:51;;;;;;;12.52;8.13;;;16.40;96.30;;;;;;4960365;28;20109;-86
2021/07/23 06:30:17;;;;;;;14.55;8.20;;;16.40;96.40;;;;;;4961186;28;20082;-87
2021/07/23 06:32:43;;;;;;;13.90;7.68;;;16.50;96.40;;;;;;4971468;28;20524;-87
2021/07/23 06:35:10;;;;;;;12.55;8.15;;;16.50;96.40;;;;;;4932623;28;20053;-86
2021/07/23 06:37:36;;;;;;;11.60;8.50;;;16.50;96.30;;;;;;4968415;28;20438;-87
2021/07/23 06:40:02;;;;;;;11.27;8.02;;;16.50;96.30;;;;;;4973626;28;20035;-87
2021/07/23 06:42:28;;;;;;;15.05;9.38;;;16.50;96.30;;;;;;4940627;28;20040;-87
2021/07/23 06:44:54;;;;;;;14.73;8.23;;;16.50;96.30;;;;;;4954953;28;20042;-88
2021/07/23 06:47:20;;;;;;;12.25;8.48;;;16.50;96.20;;;;;;4941878;28;20035;-89
2021/07/23 06:49:51;;;;;;;13.98;8.40;;;16.50;96.30;;;;;;4975326;28;20047;-87
2021/07/23 06:52:18;;;;;;;13.82;8.43;;;16.50;96.20;;;;;;4952771;28;20478;-86
2021/07/23 06:54:45;;;;;;;16.85;8.48;;;16.50;96.10;;;;;;4945926;28;20054;-86
2021/07/23 06:57:11;;;;;;;10.45;8.02;;;16.50;96.10;;;;;;4984918;28;20035;-85
2021/07/23 06:59:36;;;;;;;10.65;8.10;;;16.50;96.10;;;;;;4963506;28;20058;-86
2021/07/23 07:02:03;;;;;;;13.27;9.00;;;16.50;96.10;;;;;;4945902;28;20050;-88
2021/07/23 07:04:30;;;;;;;13.63;8.25;;;16.50;96.10;;;;;;4966801;28;20422;-86
2021/07/23 07:06:59;;;;;;;16.50;9.95;;;16.50;96.10;;;;;;4962943;28;20106;-85
2021/07/23 07:09:27;;;;;;;17.60;9.23;;;16.60;96.00;;;;;;4968636;28;20430;-87
2021/07/23 07:12:00;;;;;;;12.63;9.18;;;16.60;95.90;;;;;;4963445;28;20578;-86
2021/07/23 07:14:26;;;;;;;15.57;9.95;;;16.60;95.80;;;;;;4959662;28;20062;-85
2021/07/23 07:16:53;;;;;;;13.75;9.00;;;16.60;95.70;;;;;;4979456;28;20034;-86
2021/07/23 07:19:19;;;;;;;13.27;9.57;;;16.60;95.60;;;;;;4930287;28;20038;-86
2021/07/23 07:21:48;;;;;;;14.18;9.52;;;16.60;95.60;;;;;;4941130;28;20042;-86
2021/07/23 07:24:16;;;;;;;13.70;9.35;;;16.60;95.60;;;;;;4957139;28;20038;-84
2021/07/23 07:26:43;;;;;;;12.77;9.27;;;16.70;95.60;;;;;;4961204;28;20058;-85
2021/07/23 07:29:09;;;;;;;15.05;9.73;;;16.70;95.50;;;;;;4948185;28;20031;-87
2021/07/23 07:31:35;;;;;;;12.85;8.60;;;16.70;95.40;;;;;;4971062;28;20061;-87
2021/07/23 07:34:01;;;;;;;13.70;8.90;;;16.70;95.50;;;;;;4967363;28;20046;-86
2021/07/23 07:36:27;;;;;;;16.77;9.38;;;16.70;95.40;;;;;;4933442;28;20035;-86
2021/07/23 07:38:53;;;;;;;13.32;9.43;;;16.80;95.50;;;;;;4962817;28;20030;-86
2021/07/23 07:41:20;;;;;;;15.15;9.57;;;16.80;95.50;;;;;;4966952;28;20042;-85
2021/07/23 07:43:46;;;;;;;13.10;8.73;;;16.80;95.30;;;;;;4945679;28;20062;-84
2021/07/23 07:46:12;;;;;;;15.38;9.27;;;16.80;95.30;;;;;;4959988;28;20039;-84
2021/07/23 07:48:38;;;;;;;14.45;9.43;;;16.90;95.20;;;;;;4970830;28;20452;-85
2021/07/23 07:51:07;;;;;;;12.40;9.35;;;16.90;95.10;;;;;;4946284;28;20210;-86
2021/07/23 07:53:32;;;;;;;15.40;10.95;;;16.90;95.00;;;;;;4952208;28;20047;-86
2021/07/23 07:55:58;;;;;;;18.85;10.90;;;16.90;94.80;;;;;;4943577;28;20424;-85
2021/07/23 07:58:24;;;;;;;15.07;10.18;;;16.90;94.60;;;;;;4960784;28;20165;-88
2021/07/23 08:00:50;;;;;;;14.75;10.38;;;16.90;94.50;;;;;;4970396;28;20477;-87
2021/07/23 08:03:16;;;;;;;15.57;11.38;;;16.90;94.60;;;;;;4932585;28;20043;-88
2021/07/23 08:05:42;;;;;;;16.02;11.25;;;17.00;94.60;;;;;;4948216;28;20318;-84
2021/07/23 08:08:09;;;;;;;20.05;12.18;;;17.00;94.40;;;;;;4936703;28;20134;-86
2021/07/23 08:10:36;;;;;;;19.38;11.55;;;17.00;94.40;;;;;;4952273;28;20034;-86
2021/07/23 08:13:07;;;;;;;18.25;13.02;;;17.00;94.20;;;;;;4970974;28;20195;-88
2021/07/23 08:15:36;;;;;;;18.63;11.63;;;17.00;94.20;;;;;;4944127;28;20042;-87
2021/07/23 08:18:03;;;;;;;18.50;12.70;;;17.00;94.30;;;;;;4977281;28;20113;-87
2021/07/23 08:20:30;;;;;;;19.88;12.90;;;17.00;94.30;;;;;;4953690;28;20045;-88
2021/07/23 08:22:56;;;;;;;17.92;12.55;;;17.00;94.30;;;;;;4954566;28;20039;-87
2021/07/23 08:25:24;;;;;;;18.52;12.45;;;17.00;94.30;;;;;;4929113;28;20134;-87
2021/07/23 08:27:50;;;;;;;18.88;13.88;;;17.10;94.60;;;;;;4962691;28;20035;-84
2021/07/23 08:30:16;;;;;;;16.15;12.00;;;17.20;94.40;;;;;;4955421;28;20133;-87
2021/07/23 08:32:46;;;;;;;19.08;13.55;;;17.20;94.30;;;;;;4937248;28;20687;-86
2021/07/23 08:35:13;;;;;;;18.45;13.20;;;17.20;94.30;;;;;;4946390;28;20089;-85
2021/07/23 08:37:39;;;;;;;17.75;13.18;;;17.20;94.10;;;;;;4949831;28;20034;-87
2021/07/23 08:40:06;;;;;;;17.25;13.05;;;17.20;94.10;;;;;;4950118;28;20129;-86
2021/07/23 08:42:33;;;;;;;20.92;14.80;;;17.30;94.20;;;;;;4977743;28;20125;-87
2021/07/23 08:45:02;;;;;;;20.40;13.77;;;17.30;94.10;;;;;;4959754;28;20039;-85
2021/07/23 08:47:29;;;;;;;20.33;15.07;;;17.30;94.20;;;;;;4964641;28;20065;-84
2021/07/23 08:49:55;;;;;;;22.48;13.60;;;17.30;94.10;;;;;;4939397;28;20043;-86
2021/07/23 08:52:44;;;;;;;20.50;15.07;;;17.40;94.00;;;;;;4957622;28;20063;-86
2021/07/23 08:55:16;;;;;;;18.85;14.95;;;17.40;94.10;;;;;;4949254;28;20038;-86
2021/07/23 08:57:43;;;;;;;17.65;13.70;;;17.40;94.20;;;;;;4970689;28;20378;-87
2021/07/23 09:00:17;;;;;;;19.52;14.50;;;17.40;94.20;;;;;;4963295;28;20460;-86
2021/07/23 09:02:56;;;;;;;17.85;14.38;;;17.40;94.10;;;;;;4958348;28;20030;-86
2021/07/23 09:05:32;;;;;;;20.48;13.52;;;17.40;94.40;;;;;;4954968;28;20047;-86
2021/07/23 09:08:12;;;;;;;19.63;14.00;;;17.40;94.00;;;;;;4956434;28;20042;-86
2021/07/23 09:10:38;;;;;;;20.52;14.23;;;17.50;94.00;;;;;;4978403;28;20270;-86
2021/07/23 09:13:06;;;;;;;17.58;13.15;;;17.50;93.80;;;;;;4963152;28;20159;-88
2021/07/23 09:15:37;;;;;;;15.73;12.68;;;17.60;93.80;;;;;;4954348;28;20129;-86
2021/07/23 09:18:07;;;;;;;19.88;15.30;;;17.60;93.80;;;;;;4948941;28;20133;-89
2021/07/23 09:20:33;;;;;;;20.90;15.13;;;17.60;93.70;;;;;;4970136;28;20294;-88
2021/07/23 09:23:06;;;;;;;13.25;10.07;;;17.60;93.90;;;;;;4959482;28;20073;-87
2021/07/23 09:25:32;;;;;;;;;;;17.70;94.10;;;;;;4969249;28;20102;-86
2021/07/23 09:27:58;;;;;;;20.40;15.15;;;17.80;94.00;;;;;;4975168;28;20910;-87
2021/07/23 09:30:41;;;;;;;21.05;15.20;;;17.80;93.90;;;;;;4962447;28;20543;-87
2021/07/23 09:33:07;;;;;;;20.17;14.60;;;17.90;93.90;;;;;;4945380;28;20139;-86
2021/07/23 09:35:33;;;;;;;20.35;15.55;;;17.90;93.80;;;;;;4951722;28;20521;-87
2021/07/23 09:37:59;;;;;;;18.20;14.55;;;18.00;93.70;;;;;;4951553;28;20174;-87
2021/07/23 09:40:39;;;;;;;15.98;12.85;;;18.10;93.50;;;;;;4947788;28;20047;-87
2021/07/23 09:43:06;;;;;;;19.80;13.93;;;18.20;93.50;;;;;;4960337;28;20049;-86
2021/07/23 09:45:33;;;;;;;16.98;13.10;;;18.20;93.30;;;;;;4963311;28;20035;-86
2021/07/23 09:48:13;;;;;;;17.73;12.50;;;18.30;93.30;;;;;;4953089;28;20366;-88
2021/07/23 09:50:43;;;;;;;16.02;12.30;;;18.40;93.20;;;;;;4965057;28;20089;-86
2021/07/23 09:53:14;;;;;;;20.08;12.77;;;18.40;93.00;;;;;;4949666;28;20089;-88
2021/07/23 09:55:46;;;;;;;11.43;8.27;;;18.50;92.90;;;;;;4930750;28;20039;-87
2021/07/23 09:58:18;;;;;;;11.18;7.88;;;18.60;92.60;;;;;;4976582;28;20521;-86
2021/07/23 10:00:48;;;;;;;;;;;18.60;92.20;;;;;;4955815;28;20050;-86
2021/07/23 10:03:16;;;;;;;14.68;10.20;;;18.60;92.30;;;;;;4979509;28;19933;-85
2021/07/23 10:06:02;;;;;;;14.88;9.60;;;18.70;92.30;;;;;;4964999;28;20034;-86
2021/07/23 10:08:32;;;;;;;15.75;10.25;;;18.70;92.20;;;;;;4983046;28;20039;-86
2021/07/23 10:11:01;;;;;;;12.95;9.30;;;18.80;92.10;;;;;;4969545;28;20046;-86
2021/07/23 10:13:29;;;;;;;11.05;8.70;;;18.80;92.00;;;;;;4982981;28;20042;-86
2021/07/23 10:15:56;;;;;;;10.55;8.07;;;18.80;92.00;;;;;;4977477;28;20038;-86
2021/07/23 10:18:23;;;;;;;12.55;8.48;;;18.90;91.70;;;;;;4952136;28;20043;-86
2021/07/23 10:20:49;;;;;;;13.00;8.48;;;18.90;91.70;;;;;;4940890;28;20062;-85
2021/07/23 10:23:21;;;;;;;11.25;8.75;;;18.90;92.10;;;;;;4971691;28;20038;-86
2021/07/23 10:25:52;;;;;;;13.20;9.85;;;18.90;92.20;;;;;;4974157;28;20057;-87
2021/07/23 10:28:36;;;;;;;14.48;9.43;;;18.90;92.20;;;;;;4962821;28;20072;-87
2021/07/23 10:31:17;;;;;;;12.40;8.80;;;18.90;91.70;;;;;;4963761;28;20188;-86
2021/07/23 10:33:52;;;;;;;13.70;9.18;;;19.00;91.50;;;;;;4960738;28;20046;-87
2021/07/23 10:36:27;;;;;;;13.75;10.80;;;18.90;91.40;;;;;;4969073;28;20505;-87
2021/07/23 10:39:05;;;;;;;19.20;11.95;;;19.00;91.50;;;;;;4960258;28;20043;-87
2021/07/23 10:41:32;;;;;;;17.17;8.80;;;19.00;91.40;;;;;;4960762;28;20070;-86
2021/07/23 10:43:58;;;;;;;10.65;7.45;;;19.00;91.30;;;;;;4973024;28;20039;-86
2021/07/23 10:46:43;;;;;;;13.13;7.32;;;19.00;91.10;;;;;;4963514;28;20054;-86
2021/07/23 10:49:09;;;;;;;9.48;7.55;;;19.10;90.80;;;;;;4967199;28;20111;-86
2021/07/23 10:51:52;;;;;;;15.77;9.40;;;19.10;90.60;;;;;;4969567;28;20035;-86
2021/07/23 10:54:22;;;;;;;;;;;19.10;90.90;;;;;;4956218;28;20035;-86
2021/07/23 10:59:43;;;;;;;12.90;9.65;;;19.30;90.90;;;;;;4973502;28;20105;-86
2021/07/23 11:02:15;;;;;;;14.45;9.10;;;19.30;91.10;;;;;;4973497;28;20039;-86
2021/07/23 11:04:42;;;;;;;10.60;8.20;;;19.40;91.00;;;;;;4976880;28;20043;-86
2021/07/23 11:07:10;;;;;;;14.75;9.30;;;19.40;90.90;;;;;;4958180;28;20553;-86
2021/07/23 11:09:37;;;;;;;13.68;8.93;;;19.40;90.90;;;;;;4987589;28;20091;-86
2021/07/23 11:12:21;;;;;;;13.32;9.77;;;19.40;91.00;;;;;;4945476;28;20118;-86
2021/07/23 11:14:53;;;;;;;13.02;9.10;;;19.40;90.80;;;;;;4976357;28;20450;-85
2021/07/23 11:17:20;;;;;;;15.88;9.90;;;19.40;90.60;;;;;;4962370;28;20035;-86
2021/07/23 11:19:47;;;;;;;12.77;9.80;;;19.40;90.50;;;;;;4952697;28;20046;-86
2021/07/23 11:22:25;;;;;;;17.83;9.80;;;19.40;90.30;;;;;;4964302;28;21638;-86
2021/07/23 11:24:55;;;;;;;13.50;9.50;;;19.40;90.70;;;;;;4976118;28;20426;-86
2021/07/23 11:27:30;;;;;;;15.57;9.95;;;19.40;90.70;;;;;;4969848;28;20074;-86
2021/07/23 11:29:57;;;;;;;15.40;9.27;;;19.40;90.50;;;;;;4962378;28;20484;-85
2021/07/23 11:32:23;;;;;;;13.32;9.23;;;19.40;90.70;;;;;;4938743;28;20383;-87
2021/07/23 11:35:02;;;;;;;14.70;9.43;;;19.50;90.90;;;;;;4956703;28;20035;-86
2021/07/23 11:37:29;;;;;;;13.73;9.85;;;19.40;90.50;;;;;;4958046;28;20390;-85
2021/07/23 11:40:03;;;;;;;14.57;9.32;;;19.50;90.50;;;;;;4959331;28;20026;-86
2021/07/23 11:42:36;;;;;;;15.02;8.40;;;19.50;90.40;;;;;;4962600;28;20046;-87
2021/07/23 11:45:04;;;;;;;11.48;8.15;;;19.50;90.40;;;;;;4974590;28;20050;-86
2021/07/23 11:47:38;;;;;;;15.35;8.88;;;19.60;90.90;;;;;;4964543;28;20050;-85
2021/07/23 11:50:08;;;;;;;15.13;9.20;;;19.60;90.70;;;;;;4963926;28;20035;-86
2021/07/23 11:52:34;;;;;;;12.82;8.93;;;19.60;90.70;;;;;;4974793;28;20070;-86
2021/07/23 11:55:00;;;;;;;16.02;9.45;;;19.70;90.50;;;;;;4972094;28;20051;-87
2021/07/23 11:57:28;;;;;;;11.75;8.43;;;19.70;90.00;;;;;;4977236;28;20482;-86
2021/07/23 11:59:54;;;;;;;10.98;8.18;;;19.80;89.80;;;;;;4973800;28;20039;-85
2021/07/23 12:02:27;;;;;;;10.93;7.60;;;19.80;89.60;;;;;;4959768;28;20622;-85
2021/07/23 12:05:10;;;;;;;15.10;8.48;;;19.90;89.20;;;;;;4974092;28;20074;-86
2021/07/23 12:07:37;;;;;;;14.68;7.60;;;20.00;89.40;;;;;;4968780;28;20042;-86
2021/07/23 12:10:06;;;;;;;9.88;7.80;;;20.10;89.50;;;;;;4958284;28;20113;-85
2021/07/23 12:12:34;;;;;;;12.52;7.93;;;20.20;89.40;;;;;;4953725;28;20027;-88
2021/07/23 12:15:06;;;;;;;12.10;7.97;;;20.30;89.00;;;;;;4964855;28;20039;-84
2021/07/23 12:17:35;;;;;;;12.63;6.83;;;20.30;85.80;;;;;;4980350;28;20100;-85
2021/07/23 12:20:07;;;;;;;10.70;6.93;;;20.20;85.40;;;;;;4958618;28;20035;-86
2021/07/23 12:22:33;;;;;;;9.38;6.68;;;20.20;84.60;;;;;;4960884;28;20513;-86
2021/07/23 12:25:14;;;;;;;8.75;5.97;;;20.10;83.80;;;;;;4964234;28;20042;-86
2021/07/23 12:27:40;;;;;;;8.65;6.07;;;20.10;83.80;;;;;;4964230;28;20045;-86
2021/07/23 12:30:07;;;;;;;8.25;5.75;;;20.10;83.30;;;;;;4934584;28;20031;-86
2021/07/23 12:32:33;;;;;;;12.45;6.68;;;20.00;84.50;;;;;;4964200;28;20034;-85
2021/07/23 12:35:00;;;;;;;10.50;7.10;;;20.10;84.10;;;;;;4979337;28;20049;-87
2021/07/23 12:37:27;;;;;;;11.50;7.57;;;20.10;83.90;;;;;;4945962;28;20117;-84
2021/07/23 12:40:14;;;;;;;10.45;6.82;;;20.10;84.40;;;;;;4951149;28;20522;-85
2021/07/23 12:42:40;;;;;;;9.18;6.68;;;20.20;84.40;;;;;;4954712;28;20066;-88